createdAt,value
2018-07-06T00:10:00.753Z,3.0
2018-07-06T00:30:00.947Z,4.0
2018-07-06T00:50:01.116Z,4.0
2018-07-06T01:10:01.498Z,6.8
2018-07-06T01:30:00.509Z,4.6
2018-07-06T01:50:00.763Z,6.0
2018-07-06T02:10:00.820Z,7.0
2018-07-06T02:30:01.219Z,7.0
2018-07-06T02:50:01.386Z,6.6
2018-07-06T03:10:00.510Z,7.0
2018-07-06T03:30:00.763Z,6.4
2018-07-06T03:50:00.898Z,7.0
2018-07-06T04:10:01.162Z,8.0
2018-07-06T04:30:01.290Z,9.2
2018-07-06T04:50:00.557Z,7.8
2018-07-06T05:10:00.804Z,6.8
2018-07-06T05:30:00.952Z,6.0
2018-07-06T05:50:01.192Z,5.8
2018-07-06T06:10:01.321Z,4.0
2018-07-06T06:15:01.244Z,4.0
2018-07-06T06:25:01.321Z,4.3
2018-07-06T06:30:01.372Z,4.2
2018-07-06T06:35:01.256Z,4.2
2018-07-06T06:40:01.326Z,4.4
2018-07-06T06:45:01.314Z,4.6
2018-07-06T06:50:01.319Z,4.6
2018-07-06T06:55:01.251Z,4.6
2018-07-06T07:00:01.262Z,4.8
2018-07-06T07:05:01.227Z,4.6
2018-07-06T07:10:01.270Z,4.4
2018-07-06T07:15:01.326Z,4.1
2018-07-06T07:25:01.430Z,3.7
2018-07-06T07:30:01.456Z,3.6
2018-07-06T07:40:01.270Z,3.5
2018-07-06T07:45:01.276Z,3.6
2018-07-06T07:50:01.314Z,3.2
2018-07-06T07:55:01.429Z,3.0
2018-07-06T08:00:01.299Z,2.8
2018-07-06T08:05:01.339Z,2.6
2018-07-06T08:10:01.996Z,2.3
2018-07-06T08:15:01.285Z,2.5
2018-07-06T08:20:06.371Z,2.4
2018-07-06T08:25:01.302Z,2.2
2018-07-06T08:30:01.353Z,1.9
2018-07-06T08:35:01.294Z,1.9
2018-07-06T08:50:00.534Z,0.8
2018-07-06T08:55:00.429Z,1.4
2018-07-06T09:00:00.526Z,1.2
2018-07-06T09:05:00.488Z,1.2
2018-07-06T09:10:00.437Z,1.1
2018-07-06T09:15:00.478Z,1.2
2018-07-06T09:20:01.783Z,1.0
2018-07-06T09:25:00.466Z,1.0
2018-07-06T09:30:00.539Z,1.0
2018-07-06T09:35:00.544Z,1.0
2018-07-06T09:40:00.867Z,1.1
2018-07-06T09:45:00.478Z,1.0
2018-07-06T09:50:00.533Z,0.8
2018-07-06T09:55:00.479Z,0.7
2018-07-06T10:00:00.581Z,0.5
2018-07-06T10:05:00.487Z,0.2
2018-07-06T10:10:00.466Z,0.2
2018-07-06T10:15:00.540Z,0.4
2018-07-06T10:25:00.673Z,0.4
2018-07-06T10:30:00.596Z,0.5
2018-07-06T10:50:01.520Z,0.0
2018-07-06T10:56:01.417Z,0.5
2018-07-06T11:01:01.532Z,0.3
2018-07-06T11:06:01.390Z,0.3
2018-07-06T11:17:01.434Z,0.3
2018-07-06T11:22:02.541Z,0.1
2018-07-06T11:27:01.344Z,0.3
2018-07-06T11:32:01.456Z,0.5
2018-07-06T11:37:01.374Z,0.5
2018-07-06T11:47:01.453Z,0.9
2018-07-06T11:52:01.505Z,0.8
2018-07-06T11:57:01.367Z,0.6
2018-07-06T12:02:01.385Z,0.5
2018-07-06T12:07:02.389Z,0.3
2018-07-06T12:12:01.373Z,0.1
2018-07-06T12:17:01.370Z,0.0
2018-07-06T12:22:01.444Z,0.0
2018-07-06T12:32:01.409Z,0.0
2018-07-06T12:37:01.352Z,0.0
2018-07-06T12:42:01.337Z,0.1
2018-07-06T12:52:01.329Z,0.5
2018-07-06T12:57:01.435Z,0.7
2018-07-06T13:02:01.382Z,0.9
2018-07-06T13:07:01.383Z,0.8
2018-07-06T13:17:01.457Z,0.7
2018-07-06T13:22:02.469Z,0.7
2018-07-06T13:27:06.392Z,0.7
2018-07-06T13:32:01.377Z,1.0
2018-07-06T13:37:01.410Z,1.3
2018-07-06T13:42:01.472Z,1.2
2018-07-06T13:47:01.401Z,1.3
2018-07-06T13:52:01.346Z,1.4
2018-07-06T13:57:01.379Z,1.3
2018-07-06T14:07:01.485Z,1.6
2018-07-06T14:13:01.359Z,1.6
2018-07-06T14:18:01.369Z,1.6
2018-07-06T14:28:01.659Z,1.6
2018-07-06T14:33:01.442Z,1.4
2018-07-06T14:43:01.444Z,1.6
2018-07-06T14:48:01.365Z,1.4
2018-07-06T14:53:01.568Z,1.5
2018-07-06T14:58:01.407Z,1.9
2018-07-06T15:03:01.483Z,1.7
2018-07-06T15:08:01.401Z,1.5
2018-07-06T15:13:01.835Z,1.5
2018-07-06T15:18:01.427Z,1.6
2018-07-06T15:23:01.479Z,1.4
2018-07-06T15:28:01.377Z,1.4
2018-07-06T15:33:02.470Z,1.7
2018-07-06T15:38:01.383Z,1.7
2018-07-06T15:43:01.447Z,1.7
2018-07-06T15:48:01.351Z,1.8
2018-07-06T15:53:01.447Z,2.0
2018-07-06T15:58:01.385Z,1.8
2018-07-06T16:03:01.517Z,1.9
2018-07-06T16:08:01.431Z,1.6
2018-07-06T16:13:01.429Z,1.4
2018-07-06T16:28:01.491Z,2.3
2018-07-06T16:33:01.439Z,2.6
2018-07-06T16:38:01.376Z,3.0
2018-07-06T16:43:01.506Z,2.8
2018-07-06T16:48:01.384Z,2.9
2018-07-06T16:54:06.436Z,3.1
2018-07-06T16:59:01.469Z,3.1
2018-07-06T17:14:01.439Z,3.1
2018-07-06T17:19:01.443Z,3.4
2018-07-06T17:24:01.379Z,4.8
2018-07-06T17:29:01.557Z,5.3
2018-07-06T17:34:01.370Z,5.2
2018-07-06T17:44:01.433Z,4.9
2018-07-06T17:49:01.445Z,3.8
2018-07-06T17:54:01.380Z,3.4
2018-07-06T17:59:01.440Z,3.6
2018-07-06T18:04:01.382Z,4.2
2018-07-06T18:09:01.429Z,4.0
2018-07-06T18:14:01.369Z,3.6
2018-07-06T18:19:01.431Z,3.5
2018-07-06T18:24:01.338Z,3.5
2018-07-06T18:34:01.503Z,3.1
2018-07-06T18:39:01.444Z,2.8
2018-07-06T18:44:01.373Z,2.7
2018-07-06T18:49:02.425Z,2.6
2018-07-06T18:54:01.383Z,2.6
2018-07-06T18:59:01.372Z,2.6
2018-07-06T19:04:01.376Z,2.5
2018-07-06T19:09:01.372Z,2.4
2018-07-06T19:14:01.382Z,2.3
2018-07-06T19:29:01.476Z,2.2
2018-07-06T19:34:01.380Z,2.4
2018-07-06T19:39:01.370Z,2.4
2018-07-06T19:44:01.375Z,2.4
2018-07-06T19:49:01.438Z,2.4
2018-07-06T19:54:01.374Z,2.3
2018-07-06T19:59:01.505Z,2.1
2018-07-06T20:04:01.604Z,2.2
2018-07-06T20:09:01.456Z,2.2
2018-07-06T20:14:01.395Z,2.2
2018-07-06T20:19:01.454Z,2.1
2018-07-06T20:24:01.375Z,2.1
2018-07-06T20:29:01.737Z,2.0
2018-07-06T20:34:01.383Z,2.2
2018-07-06T20:39:01.375Z,2.2
2018-07-06T20:44:01.376Z,2.2
2018-07-06T20:49:01.450Z,2.2
2018-07-06T20:54:01.798Z,2.2
2018-07-06T20:59:01.450Z,2.0
2018-07-06T21:04:01.341Z,2.1
2018-07-06T21:09:01.338Z,1.9
2018-07-06T21:14:01.371Z,1.9
2018-07-06T21:19:01.499Z,1.9
2018-07-06T21:24:01.343Z,1.9
2018-07-06T21:29:01.444Z,1.8
2018-07-06T21:34:01.377Z,2.0
2018-07-06T21:39:01.445Z,2.2
2018-07-06T21:44:01.384Z,2.0
2018-07-06T21:49:01.495Z,2.0
2018-07-06T21:54:01.370Z,2.0
2018-07-06T21:59:01.436Z,1.9
2018-07-06T22:04:01.383Z,1.7
2018-07-06T22:09:01.449Z,1.8
2018-07-06T22:14:01.399Z,1.9
2018-07-06T22:19:01.443Z,1.9
2018-07-06T22:24:01.389Z,2.2
2018-07-06T22:30:01.498Z,2.2
2018-07-06T22:35:01.404Z,2.4
2018-07-06T22:40:01.466Z,2.5
2018-07-06T22:45:01.379Z,2.5
2018-07-06T22:50:01.440Z,2.2
2018-07-06T22:55:01.466Z,2.0
2018-07-06T23:00:01.509Z,1.8
2018-07-06T23:06:01.373Z,1.7
2018-07-06T23:11:01.573Z,1.7
2018-07-06T23:16:01.342Z,1.8
2018-07-06T23:21:01.376Z,2.2
2018-07-06T23:26:01.379Z,2.3
2018-07-06T23:31:01.442Z,2.3
2018-07-06T23:36:01.389Z,2.3
2018-07-06T23:41:01.497Z,2.3
2018-07-06T23:46:01.433Z,2.0
2018-07-06T23:51:01.437Z,1.9
2018-07-06T23:56:01.343Z,1.9
